sensor_id;sensor_type;location;lat;lon;timestamp;P1;durP1;ratioP1;P2;durP2;ratioP2
4148;SDS011;2088;51.032;7.082;2023-04-03T00:01:26;4.20;;;2.40;;
4148;SDS011;2088;51.032;7.082;2023-04-03T00:03:55;3.50;;;2.17;;
4148;SDS011;2088;51.032;7.082;2023-04-03T00:06:22;2.23;;;2.03;;
4148;SDS011;2088;51.032;7.082;2023-04-03T00:08:49;5.13;;;2.30;;
4148;SDS011;2088;51.032;7.082;2023-04-03T00:11:17;3.23;;;2.27;;
4148;SDS011;2088;51.032;7.082;2023-04-03T00:13:44;2.67;;;2.40;;
4148;SDS011;2088;51.032;7.082;2023-04-03T00:16:11;3.13;;;2.80;;
4148;SDS011;2088;51.032;7.082;2023-04-03T00:18:39;3.90;;;2.47;;
4148;SDS011;2088;51.032;7.082;2023-04-03T00:21:07;3.07;;;2.67;;
4148;SDS011;2088;51.032;7.082;2023-04-03T00:23:35;3.57;;;2.20;;
4148;SDS011;2088;51.032;7.082;2023-04-03T00:26:02;9.37;;;2.73;;
4148;SDS011;2088;51.032;7.082;2023-04-03T00:28:29;3.00;;;2.80;;
4148;SDS011;2088;51.032;7.082;2023-04-03T00:30:56;3.00;;;2.13;;
4148;SDS011;2088;51.032;7.082;2023-04-03T00:33:23;2.40;;;2.20;;
4148;SDS011;2088;51.032;7.082;2023-04-03T00:35:50;2.90;;;2.63;;
4148;SDS011;2088;51.032;7.082;2023-04-03T00:38:19;2.70;;;2.50;;
4148;SDS011;2088;51.032;7.082;2023-04-03T00:40:46;2.67;;;2.23;;
4148;SDS011;2088;51.032;7.082;2023-04-03T00:43:19;4.40;;;2.37;;
4148;SDS011;2088;51.032;7.082;2023-04-03T00:45:47;5.63;;;2.40;;
4148;SDS011;2088;51.032;7.082;2023-04-03T00:48:15;4.87;;;1.90;;
4148;SDS011;2088;51.032;7.082;2023-04-03T00:50:43;3.03;;;2.67;;
4148;SDS011;2088;51.032;7.082;2023-04-03T00:53:11;7.23;;;2.80;;
4148;SDS011;2088;51.032;7.082;2023-04-03T00:55:40;6.07;;;2.80;;
4148;SDS011;2088;51.032;7.082;2023-04-03T00:58:08;2.90;;;2.50;;
4148;SDS011;2088;51.032;7.082;2023-04-03T01:00:35;2.83;;;2.60;;
4148;SDS011;2088;51.032;7.082;2023-04-03T01:03:03;4.30;;;2.30;;
4148;SDS011;2088;51.032;7.082;2023-04-03T01:05:30;8.13;;;2.90;;
4148;SDS011;2088;51.032;7.082;2023-04-03T01:07:58;3.20;;;2.53;;
4148;SDS011;2088;51.032;7.082;2023-04-03T01:10:25;5.67;;;2.70;;
4148;SDS011;2088;51.032;7.082;2023-04-03T01:12:53;2.70;;;2.50;;
4148;SDS011;2088;51.032;7.082;2023-04-03T01:15:21;3.47;;;2.23;;
4148;SDS011;2088;51.032;7.082;2023-04-03T01:17:49;5.40;;;3.27;;
4148;SDS011;2088;51.032;7.082;2023-04-03T01:23:12;5.57;;;2.80;;
4148;SDS011;2088;51.032;7.082;2023-04-03T01:25:44;7.73;;;3.40;;
4148;SDS011;2088;51.032;7.082;2023-04-03T01:28:15;3.07;;;2.70;;
4148;SDS011;2088;51.032;7.082;2023-04-03T01:30:43;7.67;;;2.63;;
4148;SDS011;2088;51.032;7.082;2023-04-03T01:33:12;2.50;;;2.30;;
4148;SDS011;2088;51.032;7.082;2023-04-03T01:35:39;2.60;;;2.40;;
4148;SDS011;2088;51.032;7.082;2023-04-03T01:38:06;3.30;;;2.30;;
4148;SDS011;2088;51.032;7.082;2023-04-03T01:40:33;4.13;;;2.70;;
4148;SDS011;2088;51.032;7.082;2023-04-03T01:43:00;4.43;;;2.30;;
4148;SDS011;2088;51.032;7.082;2023-04-03T01:45:27;4.40;;;2.53;;
4148;SDS011;2088;51.032;7.082;2023-04-03T01:47:55;5.00;;;2.60;;
4148;SDS011;2088;51.032;7.082;2023-04-03T01:50:23;10.90;;;2.93;;
4148;SDS011;2088;51.032;7.082;2023-04-03T01:52:50;3.23;;;2.93;;
4148;SDS011;2088;51.032;7.082;2023-04-03T01:55:17;4.70;;;3.20;;
4148;SDS011;2088;51.032;7.082;2023-04-03T01:57:44;7.07;;;3.17;;
4148;SDS011;2088;51.032;7.082;2023-04-03T02:00:12;5.07;;;2.70;;
4148;SDS011;2088;51.032;7.082;2023-04-03T02:02:39;4.10;;;2.80;;
4148;SDS011;2088;51.032;7.082;2023-04-03T02:05:06;5.90;;;2.90;;
4148;SDS011;2088;51.032;7.082;2023-04-03T02:07:35;3.07;;;2.50;;
4148;SDS011;2088;51.032;7.082;2023-04-03T02:10:02;3.67;;;2.67;;
4148;SDS011;2088;51.032;7.082;2023-04-03T02:12:29;3.50;;;3.20;;
4148;SDS011;2088;51.032;7.082;2023-04-03T02:14:56;3.90;;;3.40;;
4148;SDS011;2088;51.032;7.082;2023-04-03T02:17:23;6.50;;;2.13;;
4148;SDS011;2088;51.032;7.082;2023-04-03T02:19:50;3.63;;;3.20;;
4148;SDS011;2088;51.032;7.082;2023-04-03T02:22:17;8.80;;;3.00;;
4148;SDS011;2088;51.032;7.082;2023-04-03T02:24:46;11.47;;;3.40;;
4148;SDS011;2088;51.032;7.082;2023-04-03T02:27:13;4.33;;;2.80;;
4148;SDS011;2088;51.032;7.082;2023-04-03T02:29:40;3.47;;;2.57;;
4148;SDS011;2088;51.032;7.082;2023-04-03T02:32:07;4.93;;;3.10;;
4148;SDS011;2088;51.032;7.082;2023-04-03T02:34:34;5.20;;;3.07;;
4148;SDS011;2088;51.032;7.082;2023-04-03T02:37:01;2.90;;;2.57;;
4148;SDS011;2088;51.032;7.082;2023-04-03T02:39:29;4.50;;;3.67;;
4148;SDS011;2088;51.032;7.082;2023-04-03T02:41:57;7.50;;;3.00;;
4148;SDS011;2088;51.032;7.082;2023-04-03T02:44:24;2.70;;;2.50;;
4148;SDS011;2088;51.032;7.082;2023-04-03T02:46:51;4.40;;;3.40;;
4148;SDS011;2088;51.032;7.082;2023-04-03T02:49:18;3.33;;;2.90;;
4148;SDS011;2088;51.032;7.082;2023-04-03T02:51:45;4.47;;;2.33;;
4148;SDS011;2088;51.032;7.082;2023-04-03T02:54:12;4.50;;;2.27;;
4148;SDS011;2088;51.032;7.082;2023-04-03T02:56:39;3.30;;;2.60;;
4148;SDS011;2088;51.032;7.082;2023-04-03T02:59:08;3.77;;;2.40;;
4148;SDS011;2088;51.032;7.082;2023-04-03T03:01:35;3.17;;;2.97;;
4148;SDS011;2088;51.032;7.082;2023-04-03T03:04:02;3.60;;;2.60;;
4148;SDS011;2088;51.032;7.082;2023-04-03T03:06:29;5.03;;;2.60;;
4148;SDS011;2088;51.032;7.082;2023-04-03T03:08:56;6.93;;;2.80;;
4148;SDS011;2088;51.032;7.082;2023-04-03T03:11:23;2.53;;;2.10;;
4148;SDS011;2088;51.032;7.082;2023-04-03T03:13:51;4.10;;;2.60;;
4148;SDS011;2088;51.032;7.082;2023-04-03T03:16:19;5.13;;;2.17;;
4148;SDS011;2088;51.032;7.082;2023-04-03T03:18:46;3.50;;;2.40;;
4148;SDS011;2088;51.032;7.082;2023-04-03T03:21:13;2.43;;;2.23;;
4148;SDS011;2088;51.032;7.082;2023-04-03T03:23:40;7.27;;;2.30;;
4148;SDS011;2088;51.032;7.082;2023-04-03T03:26:08;2.90;;;2.40;;
4148;SDS011;2088;51.032;7.082;2023-04-03T03:28:36;4.43;;;1.90;;
4148;SDS011;2088;51.032;7.082;2023-04-03T03:31:04;1.90;;;1.80;;
4148;SDS011;2088;51.032;7.082;2023-04-03T03:33:32;6.60;;;1.70;;
4148;SDS011;2088;51.032;7.082;2023-04-03T03:35:59;4.30;;;2.10;;
4148;SDS011;2088;51.032;7.082;2023-04-03T03:38:26;2.43;;;2.23;;
4148;SDS011;2088;51.032;7.082;2023-04-03T03:40:53;2.07;;;1.93;;
4148;SDS011;2088;51.032;7.082;2023-04-03T03:43:21;1.97;;;1.77;;
4148;SDS011;2088;51.032;7.082;2023-04-03T03:45:49;6.73;;;2.30;;
4148;SDS011;2088;51.032;7.082;2023-04-03T03:48:17;2.73;;;1.77;;
4148;SDS011;2088;51.032;7.082;2023-04-03T03:50:46;3.23;;;1.90;;
4148;SDS011;2088;51.032;7.082;2023-04-03T03:53:13;1.90;;;1.80;;
4148;SDS011;2088;51.032;7.082;2023-04-03T03:55:41;9.97;;;2.20;;
4148;SDS011;2088;51.032;7.082;2023-04-03T03:58:08;3.40;;;1.63;;
4148;SDS011;2088;51.032;7.082;2023-04-03T04:00:35;6.40;;;1.97;;
4148;SDS011;2088;51.032;7.082;2023-04-03T04:03:02;1.77;;;1.43;;
4148;SDS011;2088;51.032;7.082;2023-04-03T04:05:29;2.10;;;1.90;;
4148;SDS011;2088;51.032;7.082;2023-04-03T04:07:58;4.60;;;1.77;;
4148;SDS011;2088;51.032;7.082;2023-04-03T04:10:25;3.73;;;1.60;;
4148;SDS011;2088;51.032;7.082;2023-04-03T04:12:52;1.70;;;1.60;;
4148;SDS011;2088;51.032;7.082;2023-04-03T04:15:19;1.60;;;1.47;;
4148;SDS011;2088;51.032;7.082;2023-04-03T04:17:47;1.70;;;1.60;;
4148;SDS011;2088;51.032;7.082;2023-04-03T04:20:15;1.40;;;1.30;;
4148;SDS011;2088;51.032;7.082;2023-04-03T04:22:42;4.27;;;1.73;;
4148;SDS011;2088;51.032;7.082;2023-04-03T04:25:10;5.90;;;1.87;;
4148;SDS011;2088;51.032;7.082;2023-04-03T04:27:37;2.07;;;1.60;;
4148;SDS011;2088;51.032;7.082;2023-04-03T04:30:05;1.90;;;1.40;;
4148;SDS011;2088;51.032;7.082;2023-04-03T04:32:32;2.83;;;1.70;;
4148;SDS011;2088;51.032;7.082;2023-04-03T04:34:59;2.10;;;1.90;;
4148;SDS011;2088;51.032;7.082;2023-04-03T04:37:26;5.13;;;1.50;;
4148;SDS011;2088;51.032;7.082;2023-04-03T04:39:53;2.40;;;1.60;;
4148;SDS011;2088;51.032;7.082;2023-04-03T04:42:22;2.67;;;2.00;;
4148;SDS011;2088;51.032;7.082;2023-04-03T04:44:49;3.63;;;1.53;;
4148;SDS011;2088;51.032;7.082;2023-04-03T04:47:16;1.87;;;1.73;;
4148;SDS011;2088;51.032;7.082;2023-04-03T04:49:43;12.40;;;1.83;;
4148;SDS011;2088;51.032;7.082;2023-04-03T04:52:10;4.30;;;1.50;;
4148;SDS011;2088;51.032;7.082;2023-04-03T04:54:37;6.90;;;1.60;;
4148;SDS011;2088;51.032;7.082;2023-04-03T04:57:04;19.67;;;2.20;;
4148;SDS011;2088;51.032;7.082;2023-04-03T04:59:32;3.77;;;1.53;;
4148;SDS011;2088;51.032;7.082;2023-04-03T05:01:59;3.00;;;1.67;;
4148;SDS011;2088;51.032;7.082;2023-04-03T05:04:27;2.07;;;1.40;;
4148;SDS011;2088;51.032;7.082;2023-04-03T05:06:54;1.30;;;1.20;;
4148;SDS011;2088;51.032;7.082;2023-04-03T05:09:21;2.53;;;1.40;;
4148;SDS011;2088;51.032;7.082;2023-04-03T05:11:48;3.17;;;1.73;;
4148;SDS011;2088;51.032;7.082;2023-04-03T05:14:15;1.87;;;1.77;;
4148;SDS011;2088;51.032;7.082;2023-04-03T05:16:43;1.73;;;1.63;;
4148;SDS011;2088;51.032;7.082;2023-04-03T05:19:10;3.00;;;1.47;;
4148;SDS011;2088;51.032;7.082;2023-04-03T05:21:37;2.80;;;1.40;;
4148;SDS011;2088;51.032;7.082;2023-04-03T05:24:05;1.40;;;1.30;;
4148;SDS011;2088;51.032;7.082;2023-04-03T05:26:34;1.20;;;1.07;;
4148;SDS011;2088;51.032;7.082;2023-04-03T05:29:01;1.67;;;1.47;;
4148;SDS011;2088;51.032;7.082;2023-04-03T05:31:28;4.73;;;1.63;;
4148;SDS011;2088;51.032;7.082;2023-04-03T05:33:57;2.80;;;1.40;;
4148;SDS011;2088;51.032;7.082;2023-04-03T05:36:24;2.97;;;1.70;;
4148;SDS011;2088;51.032;7.082;2023-04-03T05:38:51;2.07;;;1.33;;
4148;SDS011;2088;51.032;7.082;2023-04-03T05:41:18;1.70;;;1.60;;
4148;SDS011;2088;51.032;7.082;2023-04-03T05:43:46;3.37;;;1.40;;
4148;SDS011;2088;51.032;7.082;2023-04-03T05:46:14;2.43;;;1.60;;
4148;SDS011;2088;51.032;7.082;2023-04-03T05:48:41;1.90;;;1.40;;
4148;SDS011;2088;51.032;7.082;2023-04-03T05:51:13;2.13;;;1.53;;
4148;SDS011;2088;51.032;7.082;2023-04-03T05:53:40;1.53;;;1.30;;
4148;SDS011;2088;51.032;7.082;2023-04-03T05:56:08;2.13;;;1.67;;
4148;SDS011;2088;51.032;7.082;2023-04-03T05:58:35;2.60;;;1.67;;
4148;SDS011;2088;51.032;7.082;2023-04-03T06:01:02;2.83;;;1.67;;
4148;SDS011;2088;51.032;7.082;2023-04-03T06:03:30;1.77;;;1.67;;
4148;SDS011;2088;51.032;7.082;2023-04-03T06:05:57;2.70;;;1.70;;
4148;SDS011;2088;51.032;7.082;2023-04-03T06:08:25;2.70;;;1.40;;
4148;SDS011;2088;51.032;7.082;2023-04-03T06:10:53;1.83;;;1.43;;
4148;SDS011;2088;51.032;7.082;2023-04-03T06:13:20;3.20;;;1.30;;
4148;SDS011;2088;51.032;7.082;2023-04-03T06:15:47;2.23;;;1.90;;
4148;SDS011;2088;51.032;7.082;2023-04-03T06:18:14;2.47;;;1.60;;
4148;SDS011;2088;51.032;7.082;2023-04-03T06:20:41;3.80;;;1.67;;
4148;SDS011;2088;51.032;7.082;2023-04-03T06:23:08;8.53;;;1.83;;
4148;SDS011;2088;51.032;7.082;2023-04-03T06:25:36;8.83;;;2.03;;
4148;SDS011;2088;51.032;7.082;2023-04-03T06:28:03;4.30;;;1.57;;
4148;SDS011;2088;51.032;7.082;2023-04-03T06:30:31;3.23;;;1.37;;
4148;SDS011;2088;51.032;7.082;2023-04-03T06:32:58;1.67;;;1.33;;
4148;SDS011;2088;51.032;7.082;2023-04-03T06:35:25;7.83;;;1.50;;
4148;SDS011;2088;51.032;7.082;2023-04-03T06:37:53;2.97;;;1.50;;
4148;SDS011;2088;51.032;7.082;2023-04-03T06:40:21;5.70;;;1.77;;
4148;SDS011;2088;51.032;7.082;2023-04-03T06:42:50;3.00;;;1.20;;
4148;SDS011;2088;51.032;7.082;2023-04-03T06:45:17;4.83;;;1.50;;
4148;SDS011;2088;51.032;7.082;2023-04-03T06:47:45;3.20;;;1.47;;
4148;SDS011;2088;51.032;7.082;2023-04-03T06:50:12;1.73;;;1.63;;
4148;SDS011;2088;51.032;7.082;2023-04-03T06:52:40;2.40;;;1.10;;
4148;SDS011;2088;51.032;7.082;2023-04-03T06:55:08;5.07;;;1.53;;
4148;SDS011;2088;51.032;7.082;2023-04-03T06:57:35;9.60;;;2.13;;
4148;SDS011;2088;51.032;7.082;2023-04-03T07:00:04;3.20;;;1.30;;
4148;SDS011;2088;51.032;7.082;2023-04-03T07:02:32;2.30;;;1.23;;
4148;SDS011;2088;51.032;7.082;2023-04-03T07:04:59;1.73;;;1.13;;
4148;SDS011;2088;51.032;7.082;2023-04-03T07:07:26;2.77;;;1.10;;
4148;SDS011;2088;51.032;7.082;2023-04-03T07:09:53;2.13;;;1.53;;
4148;SDS011;2088;51.032;7.082;2023-04-03T07:12:21;3.27;;;1.60;;
4148;SDS011;2088;51.032;7.082;2023-04-03T07:14:48;1.33;;;0.97;;
4148;SDS011;2088;51.032;7.082;2023-04-03T07:17:16;3.43;;;1.40;;
4148;SDS011;2088;51.032;7.082;2023-04-03T07:19:43;2.03;;;1.13;;
4148;SDS011;2088;51.032;7.082;2023-04-03T07:22:10;5.40;;;1.43;;
4148;SDS011;2088;51.032;7.082;2023-04-03T07:24:38;5.57;;;1.87;;
4148;SDS011;2088;51.032;7.082;2023-04-03T07:27:05;2.07;;;1.27;;
4148;SDS011;2088;51.032;7.082;2023-04-03T07:29:33;3.93;;;1.37;;
4148;SDS011;2088;51.032;7.082;2023-04-03T07:32:00;4.50;;;1.20;;
4148;SDS011;2088;51.032;7.082;2023-04-03T07:34:28;2.40;;;1.10;;
4148;SDS011;2088;51.032;7.082;2023-04-03T07:36:55;2.70;;;1.33;;
4148;SDS011;2088;51.032;7.082;2023-04-03T07:39:22;2.53;;;1.23;;
4148;SDS011;2088;51.032;7.082;2023-04-03T07:41:49;3.50;;;2.20;;
4148;SDS011;2088;51.032;7.082;2023-04-03T07:44:16;7.43;;;1.83;;
4148;SDS011;2088;51.032;7.082;2023-04-03T07:46:44;3.57;;;1.40;;
4148;SDS011;2088;51.032;7.082;2023-04-03T07:49:11;5.10;;;1.40;;
4148;SDS011;2088;51.032;7.082;2023-04-03T07:51:40;1.70;;;1.13;;
4148;SDS011;2088;51.032;7.082;2023-04-03T07:54:07;2.30;;;2.10;;
4148;SDS011;2088;51.032;7.082;2023-04-03T07:56:34;3.33;;;2.17;;
4148;SDS011;2088;51.032;7.082;2023-04-03T07:59:01;2.80;;;1.30;;
4148;SDS011;2088;51.032;7.082;2023-04-03T08:01:28;2.30;;;0.90;;
4148;SDS011;2088;51.032;7.082;2023-04-03T08:03:57;4.57;;;1.17;;
4148;SDS011;2088;51.032;7.082;2023-04-03T08:06:24;3.43;;;1.27;;
4148;SDS011;2088;51.032;7.082;2023-04-03T08:08:53;4.40;;;1.10;;
4148;SDS011;2088;51.032;7.082;2023-04-03T08:11:21;4.53;;;1.13;;
4148;SDS011;2088;51.032;7.082;2023-04-03T08:13:48;2.13;;;1.40;;
4148;SDS011;2088;51.032;7.082;2023-04-03T08:16:16;0.90;;;0.80;;
4148;SDS011;2088;51.032;7.082;2023-04-03T08:18:44;2.17;;;1.10;;
4148;SDS011;2088;51.032;7.082;2023-04-03T08:21:11;2.70;;;1.33;;
4148;SDS011;2088;51.032;7.082;2023-04-03T08:23:39;1.67;;;1.20;;
4148;SDS011;2088;51.032;7.082;2023-04-03T08:26:08;1.93;;;1.33;;
4148;SDS011;2088;51.032;7.082;2023-04-03T08:28:36;7.10;;;1.50;;
4148;SDS011;2088;51.032;7.082;2023-04-03T08:31:03;1.37;;;0.80;;
4148;SDS011;2088;51.032;7.082;2023-04-03T08:33:31;1.20;;;1.10;;
4148;SDS011;2088;51.032;7.082;2023-04-03T08:35:59;3.10;;;1.80;;
4148;SDS011;2088;51.032;7.082;2023-04-03T08:38:26;1.80;;;1.13;;
4148;SDS011;2088;51.032;7.082;2023-04-03T08:41:00;1.87;;;1.00;;
4148;SDS011;2088;51.032;7.082;2023-04-03T08:43:30;4.37;;;1.03;;
4148;SDS011;2088;51.032;7.082;2023-04-03T08:45:59;1.60;;;1.10;;
4148;SDS011;2088;51.032;7.082;2023-04-03T08:48:28;1.63;;;0.93;;
4148;SDS011;2088;51.032;7.082;2023-04-03T08:50:58;3.50;;;1.90;;
4148;SDS011;2088;51.032;7.082;2023-04-03T08:53:26;2.07;;;0.93;;
4148;SDS011;2088;51.032;7.082;2023-04-03T08:55:57;1.73;;;1.17;;
4148;SDS011;2088;51.032;7.082;2023-04-03T08:58:25;4.60;;;1.73;;
4148;SDS011;2088;51.032;7.082;2023-04-03T09:00:55;1.10;;;1.00;;
4148;SDS011;2088;51.032;7.082;2023-04-03T09:03:23;2.47;;;0.90;;
4148;SDS011;2088;51.032;7.082;2023-04-03T09:05:52;1.53;;;0.77;;
4148;SDS011;2088;51.032;7.082;2023-04-03T09:08:23;3.37;;;1.20;;
4148;SDS011;2088;51.032;7.082;2023-04-03T09:10:54;1.33;;;0.80;;
4148;SDS011;2088;51.032;7.082;2023-04-03T09:13:24;1.70;;;1.03;;
4148;SDS011;2088;51.032;7.082;2023-04-03T09:15:53;2.37;;;1.10;;
4148;SDS011;2088;51.032;7.082;2023-04-03T09:18:23;2.60;;;1.00;;
4148;SDS011;2088;51.032;7.082;2023-04-03T09:20:54;1.10;;;0.83;;
4148;SDS011;2088;51.032;7.082;2023-04-03T09:23:24;2.20;;;1.00;;
4148;SDS011;2088;51.032;7.082;2023-04-03T09:25:54;4.77;;;0.83;;
4148;SDS011;2088;51.032;7.082;2023-04-03T09:28:24;2.73;;;0.90;;
4148;SDS011;2088;51.032;7.082;2023-04-03T09:30:51;2.50;;;1.10;;
4148;SDS011;2088;51.032;7.082;2023-04-03T09:33:18;1.33;;;1.00;;
4148;SDS011;2088;51.032;7.082;2023-04-03T09:35:48;4.20;;;1.10;;
4148;SDS011;2088;51.032;7.082;2023-04-03T09:38:18;4.00;;;1.10;;
4148;SDS011;2088;51.032;7.082;2023-04-03T09:40:46;3.87;;;1.70;;
4148;SDS011;2088;51.032;7.082;2023-04-03T09:43:21;1.43;;;0.80;;
4148;SDS011;2088;51.032;7.082;2023-04-03T09:45:49;1.00;;;0.90;;
4148;SDS011;2088;51.032;7.082;2023-04-03T09:48:18;2.57;;;1.10;;
4148;SDS011;2088;51.032;7.082;2023-04-03T09:50:53;2.97;;;1.40;;
4148;SDS011;2088;51.032;7.082;2023-04-03T09:53:26;5.17;;;1.30;;
4148;SDS011;2088;51.032;7.082;2023-04-03T09:55:53;1.97;;;1.10;;
4148;SDS011;2088;51.032;7.082;2023-04-03T09:58:23;1.37;;;0.90;;
4148;SDS011;2088;51.032;7.082;2023-04-03T10:00:54;4.27;;;0.87;;
4148;SDS011;2088;51.032;7.082;2023-04-03T10:03:23;3.20;;;1.10;;
4148;SDS011;2088;51.032;7.082;2023-04-03T10:05:51;2.13;;;1.47;;
4148;SDS011;2088;51.032;7.082;2023-04-03T10:08:22;1.50;;;1.13;;
4148;SDS011;2088;51.032;7.082;2023-04-03T10:11:04;1.97;;;1.30;;
4148;SDS011;2088;51.032;7.082;2023-04-03T10:13:32;1.60;;;1.20;;
4148;SDS011;2088;51.032;7.082;2023-04-03T10:16:00;8.43;;;1.27;;
4148;SDS011;2088;51.032;7.082;2023-04-03T10:18:29;3.43;;;0.90;;
4148;SDS011;2088;51.032;7.082;2023-04-03T10:20:59;2.10;;;0.93;;
4148;SDS011;2088;51.032;7.082;2023-04-03T10:23:31;1.00;;;0.90;;
4148;SDS011;2088;51.032;7.082;2023-04-03T10:26:02;2.10;;;1.40;;
4148;SDS011;2088;51.032;7.082;2023-04-03T10:28:37;3.50;;;1.20;;
4148;SDS011;2088;51.032;7.082;2023-04-03T10:31:06;3.53;;;1.20;;
4148;SDS011;2088;51.032;7.082;2023-04-03T10:33:39;1.93;;;1.20;;
4148;SDS011;2088;51.032;7.082;2023-04-03T10:36:11;1.57;;;1.07;;
4148;SDS011;2088;51.032;7.082;2023-04-03T10:38:43;1.20;;;0.87;;
4148;SDS011;2088;51.032;7.082;2023-04-03T10:41:15;1.17;;;1.00;;
4148;SDS011;2088;51.032;7.082;2023-04-03T10:43:48;1.17;;;0.80;;
4148;SDS011;2088;51.032;7.082;2023-04-03T10:46:18;1.80;;;0.83;;
4148;SDS011;2088;51.032;7.082;2023-04-03T10:48:52;2.70;;;0.80;;
4148;SDS011;2088;51.032;7.082;2023-04-03T10:51:23;6.53;;;1.13;;
4148;SDS011;2088;51.032;7.082;2023-04-03T10:53:55;1.27;;;0.70;;
4148;SDS011;2088;51.032;7.082;2023-04-03T10:56:25;4.20;;;1.00;;
4148;SDS011;2088;51.032;7.082;2023-04-03T10:58:56;1.53;;;0.93;;
4148;SDS011;2088;51.032;7.082;2023-04-03T11:01:24;3.10;;;1.43;;
4148;SDS011;2088;51.032;7.082;2023-04-03T11:03:54;3.73;;;1.30;;
4148;SDS011;2088;51.032;7.082;2023-04-03T11:06:24;3.10;;;1.07;;
4148;SDS011;2088;51.032;7.082;2023-04-03T11:08:53;1.70;;;1.30;;
4148;SDS011;2088;51.032;7.082;2023-04-03T11:11:24;1.50;;;0.83;;
4148;SDS011;2088;51.032;7.082;2023-04-03T11:13:54;2.13;;;0.77;;
4148;SDS011;2088;51.032;7.082;2023-04-03T11:16:24;1.00;;;0.90;;
4148;SDS011;2088;51.032;7.082;2023-04-03T11:18:52;3.70;;;1.03;;
4148;SDS011;2088;51.032;7.082;2023-04-03T11:21:21;1.87;;;1.03;;
4148;SDS011;2088;51.032;7.082;2023-04-03T11:23:49;1.70;;;1.00;;
4148;SDS011;2088;51.032;7.082;2023-04-03T11:26:21;1.10;;;0.97;;
4148;SDS011;2088;51.032;7.082;2023-04-03T11:28:52;4.00;;;0.90;;
4148;SDS011;2088;51.032;7.082;2023-04-03T11:31:23;4.60;;;0.90;;
4148;SDS011;2088;51.032;7.082;2023-04-03T11:33:58;3.50;;;1.20;;
4148;SDS011;2088;51.032;7.082;2023-04-03T11:36:30;2.67;;;0.80;;
4148;SDS011;2088;51.032;7.082;2023-04-03T11:38:59;1.20;;;1.00;;
4148;SDS011;2088;51.032;7.082;2023-04-03T11:41:29;0.90;;;0.63;;
4148;SDS011;2088;51.032;7.082;2023-04-03T11:43:58;1.00;;;0.60;;
4148;SDS011;2088;51.032;7.082;2023-04-03T11:49:08;1.10;;;0.80;;
4148;SDS011;2088;51.032;7.082;2023-04-03T11:51:55;1.77;;;1.00;;
4148;SDS011;2088;51.032;7.082;2023-04-03T11:59:56;2.63;;;0.87;;
4148;SDS011;2088;51.032;7.082;2023-04-03T12:02:35;1.30;;;0.70;;
4148;SDS011;2088;51.032;7.082;2023-04-03T12:08:01;2.07;;;0.97;;
4148;SDS011;2088;51.032;7.082;2023-04-03T12:10:43;2.27;;;0.83;;
4148;SDS011;2088;51.032;7.082;2023-04-03T12:13:30;1.30;;;0.70;;
4148;SDS011;2088;51.032;7.082;2023-04-03T12:15:58;0.90;;;0.70;;
4148;SDS011;2088;51.032;7.082;2023-04-03T12:18:37;1.10;;;0.60;;
4148;SDS011;2088;51.032;7.082;2023-04-03T12:21:06;1.80;;;0.70;;
4148;SDS011;2088;51.032;7.082;2023-04-03T12:23:34;1.33;;;1.00;;
4148;SDS011;2088;51.032;7.082;2023-04-03T12:26:04;2.07;;;0.90;;
4148;SDS011;2088;51.032;7.082;2023-04-03T12:28:36;1.23;;;1.07;;
4148;SDS011;2088;51.032;7.082;2023-04-03T12:31:05;1.20;;;0.90;;
4148;SDS011;2088;51.032;7.082;2023-04-03T12:33:37;1.10;;;0.87;;
4148;SDS011;2088;51.032;7.082;2023-04-03T12:36:06;1.13;;;0.70;;
4148;SDS011;2088;51.032;7.082;2023-04-03T12:41:18;3.90;;;1.10;;
4148;SDS011;2088;51.032;7.082;2023-04-03T12:43:50;1.30;;;0.90;;
4148;SDS011;2088;51.032;7.082;2023-04-03T12:46:23;2.37;;;1.40;;
4148;SDS011;2088;51.032;7.082;2023-04-03T12:48:51;2.37;;;1.10;;
4148;SDS011;2088;51.032;7.082;2023-04-03T12:51:21;2.97;;;1.20;;
4148;SDS011;2088;51.032;7.082;2023-04-03T12:53:48;1.57;;;0.97;;
4148;SDS011;2088;51.032;7.082;2023-04-03T12:56:20;2.90;;;1.00;;
4148;SDS011;2088;51.032;7.082;2023-04-03T12:58:48;1.20;;;0.90;;
4148;SDS011;2088;51.032;7.082;2023-04-03T13:01:16;1.20;;;0.80;;
4148;SDS011;2088;51.032;7.082;2023-04-03T13:03:47;1.07;;;0.70;;
4148;SDS011;2088;51.032;7.082;2023-04-03T13:06:17;2.40;;;1.00;;
4148;SDS011;2088;51.032;7.082;2023-04-03T13:08:48;1.60;;;1.07;;
4148;SDS011;2088;51.032;7.082;2023-04-03T13:11:16;2.10;;;0.80;;
4148;SDS011;2088;51.032;7.082;2023-04-03T13:13:53;4.27;;;1.03;;
4148;SDS011;2088;51.032;7.082;2023-04-03T13:16:20;1.20;;;0.90;;
4148;SDS011;2088;51.032;7.082;2023-04-03T13:18:51;2.13;;;1.10;;
4148;SDS011;2088;51.032;7.082;2023-04-03T13:21:19;3.27;;;1.03;;
4148;SDS011;2088;51.032;7.082;2023-04-03T13:23:48;2.63;;;0.90;;
4148;SDS011;2088;51.032;7.082;2023-04-03T13:26:16;4.23;;;1.10;;
4148;SDS011;2088;51.032;7.082;2023-04-03T13:28:44;6.63;;;1.47;;
4148;SDS011;2088;51.032;7.082;2023-04-03T13:31:17;1.10;;;0.87;;
4148;SDS011;2088;51.032;7.082;2023-04-03T13:33:52;1.30;;;0.97;;
4148;SDS011;2088;51.032;7.082;2023-04-03T13:36:20;2.30;;;1.07;;
4148;SDS011;2088;51.032;7.082;2023-04-03T13:38:57;3.33;;;1.03;;
4148;SDS011;2088;51.032;7.082;2023-04-03T13:41:25;4.37;;;1.10;;
4148;SDS011;2088;51.032;7.082;2023-04-03T13:43:53;2.30;;;0.93;;
4148;SDS011;2088;51.032;7.082;2023-04-03T13:46:21;4.83;;;1.10;;
4148;SDS011;2088;51.032;7.082;2023-04-03T13:48:50;3.43;;;1.10;;
4148;SDS011;2088;51.032;7.082;2023-04-03T13:51:20;2.90;;;0.90;;
4148;SDS011;2088;51.032;7.082;2023-04-03T13:53:48;1.83;;;0.90;;
4148;SDS011;2088;51.032;7.082;2023-04-03T13:56:17;1.63;;;0.90;;
4148;SDS011;2088;51.032;7.082;2023-04-03T13:58:52;2.47;;;1.03;;
4148;SDS011;2088;51.032;7.082;2023-04-03T14:01:20;7.53;;;1.10;;
4148;SDS011;2088;51.032;7.082;2023-04-03T14:03:51;5.87;;;1.43;;
4148;SDS011;2088;51.032;7.082;2023-04-03T14:06:20;2.60;;;1.43;;
4148;SDS011;2088;51.032;7.082;2023-04-03T14:08:47;3.03;;;1.00;;
4148;SDS011;2088;51.032;7.082;2023-04-03T14:11:15;4.80;;;1.30;;
4148;SDS011;2088;51.032;7.082;2023-04-03T14:13:43;2.53;;;1.10;;
4148;SDS011;2088;51.032;7.082;2023-04-03T14:16:12;1.77;;;1.07;;
4148;SDS011;2088;51.032;7.082;2023-04-03T14:18:39;2.43;;;1.10;;
4148;SDS011;2088;51.032;7.082;2023-04-03T14:21:08;3.23;;;1.07;;
4148;SDS011;2088;51.032;7.082;2023-04-03T14:23:37;4.40;;;1.10;;
4148;SDS011;2088;51.032;7.082;2023-04-03T14:26:04;1.60;;;0.80;;
4148;SDS011;2088;51.032;7.082;2023-04-03T14:28:34;1.87;;;1.20;;
4148;SDS011;2088;51.032;7.082;2023-04-03T14:31:01;3.23;;;1.10;;
4148;SDS011;2088;51.032;7.082;2023-04-03T14:33:28;3.63;;;1.73;;
4148;SDS011;2088;51.032;7.082;2023-04-03T14:35:59;2.37;;;1.17;;
4148;SDS011;2088;51.032;7.082;2023-04-03T14:38:28;2.43;;;0.80;;
4148;SDS011;2088;51.032;7.082;2023-04-03T14:40:57;2.00;;;1.20;;
4148;SDS011;2088;51.032;7.082;2023-04-03T14:43:24;1.30;;;1.00;;
4148;SDS011;2088;51.032;7.082;2023-04-03T14:45:51;1.07;;;0.97;;
4148;SDS011;2088;51.032;7.082;2023-04-03T14:48:19;1.33;;;1.10;;
4148;SDS011;2088;51.032;7.082;2023-04-03T14:50:47;1.43;;;1.07;;
4148;SDS011;2088;51.032;7.082;2023-04-03T14:53:14;2.00;;;1.00;;
4148;SDS011;2088;51.032;7.082;2023-04-03T14:55:44;1.60;;;1.50;;
4148;SDS011;2088;51.032;7.082;2023-04-03T14:58:14;1.83;;;1.10;;
4148;SDS011;2088;51.032;7.082;2023-04-03T15:00:41;1.40;;;0.80;;
4148;SDS011;2088;51.032;7.082;2023-04-03T15:03:11;1.30;;;0.90;;
4148;SDS011;2088;51.032;7.082;2023-04-03T15:05:39;2.90;;;1.20;;
4148;SDS011;2088;51.032;7.082;2023-04-03T15:08:08;1.63;;;0.83;;
4148;SDS011;2088;51.032;7.082;2023-04-03T15:10:38;4.33;;;1.17;;
4148;SDS011;2088;51.032;7.082;2023-04-03T15:13:05;4.73;;;1.20;;
4148;SDS011;2088;51.032;7.082;2023-04-03T15:15:34;2.03;;;1.10;;
4148;SDS011;2088;51.032;7.082;2023-04-03T15:18:02;1.77;;;1.57;;
4148;SDS011;2088;51.032;7.082;2023-04-03T15:20:29;2.33;;;1.13;;
4148;SDS011;2088;51.032;7.082;2023-04-03T15:22:58;1.00;;;0.90;;
